sensor_id;sensor_type;location;lat;lon;timestamp;P1;durP1;ratioP1;P2;durP2;ratioP2
6135;SDS011;24008;42.664;23.372;2023-03-14T00:01:53;4.50;;;2.90;;
6135;SDS011;24008;42.664;23.372;2023-03-14T00:04:20;4.83;;;2.73;;
6135;SDS011;24008;42.664;23.372;2023-03-14T00:06:49;5.50;;;3.73;;
6135;SDS011;24008;42.664;23.372;2023-03-14T00:09:16;6.57;;;4.00;;
6135;SDS011;24008;42.664;23.372;2023-03-14T00:11:43;7.63;;;3.40;;
6135;SDS011;24008;42.664;23.372;2023-03-14T00:14:10;6.37;;;3.93;;
6135;SDS011;24008;42.664;23.372;2023-03-14T00:16:38;8.07;;;4.57;;
6135;SDS011;24008;42.664;23.372;2023-03-14T00:19:05;7.00;;;4.20;;
6135;SDS011;24008;42.664;23.372;2023-03-14T00:21:31;7.23;;;4.20;;
6135;SDS011;24008;42.664;23.372;2023-03-14T00:24:00;10.77;;;4.87;;
6135;SDS011;24008;42.664;23.372;2023-03-14T00:26:26;7.23;;;4.17;;
6135;SDS011;24008;42.664;23.372;2023-03-14T00:28:54;6.83;;;4.23;;
6135;SDS011;24008;42.664;23.372;2023-03-14T00:31:21;6.20;;;4.23;;
6135;SDS011;24008;42.664;23.372;2023-03-14T00:33:48;7.93;;;4.30;;
6135;SDS011;24008;42.664;23.372;2023-03-14T00:36:19;7.43;;;4.53;;
6135;SDS011;24008;42.664;23.372;2023-03-14T00:38:47;6.77;;;4.20;;
6135;SDS011;24008;42.664;23.372;2023-03-14T00:41:18;9.53;;;4.63;;
6135;SDS011;24008;42.664;23.372;2023-03-14T00:43:47;7.40;;;4.40;;
6135;SDS011;24008;42.664;23.372;2023-03-14T00:46:14;9.57;;;4.63;;
6135;SDS011;24008;42.664;23.372;2023-03-14T00:48:42;7.67;;;4.47;;
6135;SDS011;24008;42.664;23.372;2023-03-14T00:51:10;6.53;;;4.17;;
6135;SDS011;24008;42.664;23.372;2023-03-14T00:53:39;7.40;;;4.30;;
6135;SDS011;24008;42.664;23.372;2023-03-14T00:56:07;8.07;;;4.30;;
6135;SDS011;24008;42.664;23.372;2023-03-14T00:58:37;9.37;;;4.90;;
6135;SDS011;24008;42.664;23.372;2023-03-14T01:01:07;10.63;;;4.93;;
6135;SDS011;24008;42.664;23.372;2023-03-14T01:03:36;8.70;;;4.97;;
6135;SDS011;24008;42.664;23.372;2023-03-14T01:06:09;11.60;;;5.97;;
6135;SDS011;24008;42.664;23.372;2023-03-14T01:08:38;11.50;;;6.33;;
6135;SDS011;24008;42.664;23.372;2023-03-14T01:11:05;10.83;;;5.97;;
6135;SDS011;24008;42.664;23.372;2023-03-14T01:13:34;12.10;;;5.97;;
6135;SDS011;24008;42.664;23.372;2023-03-14T01:16:03;12.07;;;6.97;;
6135;SDS011;24008;42.664;23.372;2023-03-14T01:18:31;12.40;;;6.57;;
6135;SDS011;24008;42.664;23.372;2023-03-14T01:20:58;14.03;;;7.50;;
6135;SDS011;24008;42.664;23.372;2023-03-14T01:23:25;11.90;;;6.40;;
6135;SDS011;24008;42.664;23.372;2023-03-14T01:25:52;13.33;;;7.33;;
6135;SDS011;24008;42.664;23.372;2023-03-14T01:28:19;11.87;;;6.43;;
6135;SDS011;24008;42.664;23.372;2023-03-14T01:30:46;13.43;;;6.83;;
6135;SDS011;24008;42.664;23.372;2023-03-14T01:33:14;12.03;;;6.87;;
6135;SDS011;24008;42.664;23.372;2023-03-14T01:35:41;13.23;;;5.90;;
6135;SDS011;24008;42.664;23.372;2023-03-14T01:38:07;12.07;;;6.60;;
6135;SDS011;24008;42.664;23.372;2023-03-14T01:40:40;9.77;;;5.40;;
6135;SDS011;24008;42.664;23.372;2023-03-14T01:43:13;15.73;;;8.83;;
6135;SDS011;24008;42.664;23.372;2023-03-14T01:48:46;14.70;;;8.37;;
6135;SDS011;24008;42.664;23.372;2023-03-14T01:51:19;15.17;;;7.93;;
6135;SDS011;24008;42.664;23.372;2023-03-14T01:53:48;13.57;;;8.00;;
6135;SDS011;24008;42.664;23.372;2023-03-14T01:56:17;13.77;;;7.57;;
6135;SDS011;24008;42.664;23.372;2023-03-14T01:58:46;16.30;;;8.40;;
6135;SDS011;24008;42.664;23.372;2023-03-14T02:01:18;15.03;;;8.93;;
6135;SDS011;24008;42.664;23.372;2023-03-14T02:03:50;24.47;;;9.93;;
6135;SDS011;24008;42.664;23.372;2023-03-14T02:06:21;21.23;;;9.83;;
6135;SDS011;24008;42.664;23.372;2023-03-14T02:08:52;17.23;;;8.83;;
6135;SDS011;24008;42.664;23.372;2023-03-14T02:11:20;16.73;;;9.17;;
6135;SDS011;24008;42.664;23.372;2023-03-14T02:13:48;15.13;;;8.80;;
6135;SDS011;24008;42.664;23.372;2023-03-14T02:16:15;17.50;;;9.50;;
6135;SDS011;24008;42.664;23.372;2023-03-14T02:18:42;18.17;;;8.93;;
6135;SDS011;24008;42.664;23.372;2023-03-14T02:21:13;17.10;;;9.27;;
6135;SDS011;24008;42.664;23.372;2023-03-14T02:23:48;18.00;;;9.03;;
6135;SDS011;24008;42.664;23.372;2023-03-14T02:26:21;15.97;;;8.83;;
6135;SDS011;24008;42.664;23.372;2023-03-14T02:28:54;16.70;;;8.90;;
6135;SDS011;24008;42.664;23.372;2023-03-14T02:31:21;18.17;;;9.03;;
6135;SDS011;24008;42.664;23.372;2023-03-14T02:33:49;20.03;;;9.37;;
6135;SDS011;24008;42.664;23.372;2023-03-14T02:36:17;16.63;;;9.23;;
6135;SDS011;24008;42.664;23.372;2023-03-14T02:38:47;19.23;;;10.33;;
6135;SDS011;24008;42.664;23.372;2023-03-14T02:41:19;19.43;;;10.03;;
6135;SDS011;24008;42.664;23.372;2023-03-14T02:43:46;17.07;;;9.50;;
6135;SDS011;24008;42.664;23.372;2023-03-14T02:46:15;20.30;;;10.07;;
6135;SDS011;24008;42.664;23.372;2023-03-14T02:48:45;22.30;;;10.27;;
6135;SDS011;24008;42.664;23.372;2023-03-14T02:51:14;17.70;;;9.63;;
6135;SDS011;24008;42.664;23.372;2023-03-14T02:53:41;19.77;;;10.10;;
6135;SDS011;24008;42.664;23.372;2023-03-14T02:56:09;23.43;;;11.57;;
6135;SDS011;24008;42.664;23.372;2023-03-14T02:58:36;17.30;;;9.77;;
6135;SDS011;24008;42.664;23.372;2023-03-14T03:01:03;17.57;;;9.97;;
6135;SDS011;24008;42.664;23.372;2023-03-14T03:03:32;22.67;;;11.20;;
6135;SDS011;24008;42.664;23.372;2023-03-14T03:05:59;19.03;;;11.07;;
6135;SDS011;24008;42.664;23.372;2023-03-14T03:08:26;20.60;;;11.33;;
6135;SDS011;24008;42.664;23.372;2023-03-14T03:10:53;23.37;;;11.50;;
6135;SDS011;24008;42.664;23.372;2023-03-14T03:13:20;21.93;;;11.37;;
6135;SDS011;24008;42.664;23.372;2023-03-14T03:15:47;21.50;;;11.20;;
6135;SDS011;24008;42.664;23.372;2023-03-14T03:18:14;20.53;;;10.57;;
6135;SDS011;24008;42.664;23.372;2023-03-14T03:20:42;23.20;;;11.30;;
6135;SDS011;24008;42.664;23.372;2023-03-14T03:23:09;18.17;;;11.40;;
6135;SDS011;24008;42.664;23.372;2023-03-14T03:25:36;21.50;;;12.23;;
6135;SDS011;24008;42.664;23.372;2023-03-14T03:28:03;21.83;;;11.90;;
6135;SDS011;24008;42.664;23.372;2023-03-14T03:30:32;26.20;;;13.70;;
6135;SDS011;24008;42.664;23.372;2023-03-14T03:33:00;22.60;;;12.47;;
6135;SDS011;24008;42.664;23.372;2023-03-14T03:35:26;19.93;;;11.43;;
6135;SDS011;24008;42.664;23.372;2023-03-14T03:37:55;20.27;;;10.90;;
6135;SDS011;24008;42.664;23.372;2023-03-14T03:40:21;23.30;;;11.67;;
6135;SDS011;24008;42.664;23.372;2023-03-14T03:42:48;18.77;;;11.57;;
6135;SDS011;24008;42.664;23.372;2023-03-14T03:45:15;23.57;;;11.30;;
6135;SDS011;24008;42.664;23.372;2023-03-14T03:47:42;22.57;;;12.53;;
6135;SDS011;24008;42.664;23.372;2023-03-14T03:50:09;22.47;;;11.43;;
6135;SDS011;24008;42.664;23.372;2023-03-14T03:52:36;21.80;;;11.57;;
6135;SDS011;24008;42.664;23.372;2023-03-14T03:55:05;20.13;;;10.93;;
6135;SDS011;24008;42.664;23.372;2023-03-14T03:57:32;20.63;;;11.63;;
6135;SDS011;24008;42.664;23.372;2023-03-14T03:59:59;23.30;;;11.43;;
6135;SDS011;24008;42.664;23.372;2023-03-14T04:02:25;20.03;;;11.30;;
6135;SDS011;24008;42.664;23.372;2023-03-14T04:04:52;23.20;;;11.97;;
6135;SDS011;24008;42.664;23.372;2023-03-14T04:07:19;18.90;;;9.97;;
6135;SDS011;24008;42.664;23.372;2023-03-14T04:09:46;22.47;;;10.67;;
6135;SDS011;24008;42.664;23.372;2023-03-14T04:12:14;20.13;;;10.13;;
6135;SDS011;24008;42.664;23.372;2023-03-14T04:14:40;20.00;;;10.20;;
6135;SDS011;24008;42.664;23.372;2023-03-14T04:17:07;21.67;;;10.23;;
6135;SDS011;24008;42.664;23.372;2023-03-14T04:19:34;19.57;;;10.47;;
6135;SDS011;24008;42.664;23.372;2023-03-14T04:22:01;25.20;;;11.70;;
6135;SDS011;24008;42.664;23.372;2023-03-14T04:24:28;19.20;;;10.10;;
6135;SDS011;24008;42.664;23.372;2023-03-14T04:26:55;24.37;;;10.77;;
6135;SDS011;24008;42.664;23.372;2023-03-14T04:29:24;21.60;;;10.43;;
6135;SDS011;24008;42.664;23.372;2023-03-14T04:31:50;85.37;;;31.50;;
6135;SDS011;24008;42.664;23.372;2023-03-14T04:34:17;33.77;;;15.03;;
6135;SDS011;24008;42.664;23.372;2023-03-14T04:36:44;24.90;;;12.77;;
6135;SDS011;24008;42.664;23.372;2023-03-14T04:39:11;25.87;;;11.37;;
6135;SDS011;24008;42.664;23.372;2023-03-14T04:41:38;22.10;;;11.37;;
6135;SDS011;24008;42.664;23.372;2023-03-14T04:44:04;23.17;;;12.10;;
6135;SDS011;24008;42.664;23.372;2023-03-14T04:46:33;22.47;;;10.33;;
6135;SDS011;24008;42.664;23.372;2023-03-14T04:48:59;21.30;;;10.83;;
6135;SDS011;24008;42.664;23.372;2023-03-14T04:51:26;24.53;;;11.97;;
6135;SDS011;24008;42.664;23.372;2023-03-14T04:53:53;22.73;;;11.83;;
6135;SDS011;24008;42.664;23.372;2023-03-14T04:56:20;24.40;;;12.07;;
6135;SDS011;24008;42.664;23.372;2023-03-14T04:58:47;21.77;;;12.10;;
6135;SDS011;24008;42.664;23.372;2023-03-14T05:01:14;20.17;;;10.73;;
6135;SDS011;24008;42.664;23.372;2023-03-14T05:03:42;19.93;;;10.57;;
6135;SDS011;24008;42.664;23.372;2023-03-14T05:06:09;19.90;;;10.73;;
6135;SDS011;24008;42.664;23.372;2023-03-14T05:08:35;21.20;;;10.47;;
6135;SDS011;24008;42.664;23.372;2023-03-14T05:11:03;21.27;;;11.67;;
6135;SDS011;24008;42.664;23.372;2023-03-14T05:13:30;21.07;;;11.07;;
6135;SDS011;24008;42.664;23.372;2023-03-14T05:16:02;28.53;;;11.77;;
6135;SDS011;24008;42.664;23.372;2023-03-14T05:18:30;21.27;;;11.00;;
6135;SDS011;24008;42.664;23.372;2023-03-14T05:20:58;22.73;;;11.47;;
6135;SDS011;24008;42.664;23.372;2023-03-14T05:23:25;21.70;;;10.63;;
6135;SDS011;24008;42.664;23.372;2023-03-14T05:25:52;19.20;;;10.57;;
6135;SDS011;24008;42.664;23.372;2023-03-14T05:28:19;20.33;;;10.67;;
6135;SDS011;24008;42.664;23.372;2023-03-14T05:30:46;17.90;;;10.33;;
6135;SDS011;24008;42.664;23.372;2023-03-14T05:33:13;20.50;;;10.23;;
6135;SDS011;24008;42.664;23.372;2023-03-14T05:35:40;21.37;;;10.13;;
6135;SDS011;24008;42.664;23.372;2023-03-14T05:38:09;20.83;;;10.27;;
6135;SDS011;24008;42.664;23.372;2023-03-14T05:40:36;20.40;;;11.13;;
6135;SDS011;24008;42.664;23.372;2023-03-14T05:43:03;20.47;;;11.30;;
6135;SDS011;24008;42.664;23.372;2023-03-14T05:45:29;23.27;;;12.20;;
6135;SDS011;24008;42.664;23.372;2023-03-14T05:48:05;23.03;;;11.97;;
6135;SDS011;24008;42.664;23.372;2023-03-14T05:50:32;23.53;;;12.03;;
6135;SDS011;24008;42.664;23.372;2023-03-14T05:52:59;23.77;;;12.77;;
6135;SDS011;24008;42.664;23.372;2023-03-14T05:55:28;29.20;;;15.23;;
6135;SDS011;24008;42.664;23.372;2023-03-14T05:57:54;41.63;;;20.27;;
6135;SDS011;24008;42.664;23.372;2023-03-14T06:00:21;35.97;;;18.93;;
6135;SDS011;24008;42.664;23.372;2023-03-14T06:02:48;37.20;;;20.13;;
6135;SDS011;24008;42.664;23.372;2023-03-14T06:05:15;39.13;;;21.17;;
6135;SDS011;24008;42.664;23.372;2023-03-14T06:07:42;34.20;;;18.70;;
6135;SDS011;24008;42.664;23.372;2023-03-14T06:10:09;30.37;;;16.97;;
6135;SDS011;24008;42.664;23.372;2023-03-14T06:12:38;29.90;;;16.37;;
6135;SDS011;24008;42.664;23.372;2023-03-14T06:15:05;32.70;;;15.63;;
6135;SDS011;24008;42.664;23.372;2023-03-14T06:17:32;28.57;;;15.80;;
6135;SDS011;24008;42.664;23.372;2023-03-14T06:19:59;28.07;;;15.73;;
6135;SDS011;24008;42.664;23.372;2023-03-14T06:22:26;24.93;;;15.40;;
6135;SDS011;24008;42.664;23.372;2023-03-14T06:24:53;27.17;;;15.33;;
6135;SDS011;24008;42.664;23.372;2023-03-14T06:27:20;27.27;;;14.87;;
6135;SDS011;24008;42.664;23.372;2023-03-14T06:29:48;26.73;;;14.50;;
6135;SDS011;24008;42.664;23.372;2023-03-14T06:32:15;24.27;;;14.13;;
6135;SDS011;24008;42.664;23.372;2023-03-14T06:34:43;27.83;;;13.00;;
6135;SDS011;24008;42.664;23.372;2023-03-14T06:37:10;27.20;;;15.73;;
6135;SDS011;24008;42.664;23.372;2023-03-14T06:39:36;24.23;;;13.57;;
6135;SDS011;24008;42.664;23.372;2023-03-14T06:42:03;30.10;;;16.33;;
6135;SDS011;24008;42.664;23.372;2023-03-14T06:44:31;22.57;;;12.63;;
6135;SDS011;24008;42.664;23.372;2023-03-14T06:46:59;22.77;;;12.87;;
6135;SDS011;24008;42.664;23.372;2023-03-14T06:49:26;23.27;;;12.97;;
6135;SDS011;24008;42.664;23.372;2023-03-14T06:51:53;21.80;;;11.40;;
6135;SDS011;24008;42.664;23.372;2023-03-14T06:54:19;19.57;;;11.70;;
6135;SDS011;24008;42.664;23.372;2023-03-14T06:56:46;19.13;;;11.87;;
6135;SDS011;24008;42.664;23.372;2023-03-14T06:59:13;18.10;;;10.90;;
6135;SDS011;24008;42.664;23.372;2023-03-14T07:01:40;15.83;;;10.83;;
6135;SDS011;24008;42.664;23.372;2023-03-14T07:04:09;12.13;;;9.10;;
6135;SDS011;24008;42.664;23.372;2023-03-14T07:06:35;14.57;;;9.07;;
6135;SDS011;24008;42.664;23.372;2023-03-14T07:09:04;15.23;;;9.47;;
6135;SDS011;24008;42.664;23.372;2023-03-14T07:11:31;19.20;;;11.27;;
6135;SDS011;24008;42.664;23.372;2023-03-14T07:13:58;21.73;;;12.23;;
6135;SDS011;24008;42.664;23.372;2023-03-14T07:16:25;20.00;;;12.67;;
6135;SDS011;24008;42.664;23.372;2023-03-14T07:18:54;20.60;;;13.07;;
6135;SDS011;24008;42.664;23.372;2023-03-14T07:21:22;19.17;;;12.13;;
6135;SDS011;24008;42.664;23.372;2023-03-14T07:23:49;18.27;;;11.37;;
6135;SDS011;24008;42.664;23.372;2023-03-14T07:26:15;18.60;;;11.80;;
6135;SDS011;24008;42.664;23.372;2023-03-14T07:28:42;18.57;;;11.13;;
6135;SDS011;24008;42.664;23.372;2023-03-14T07:31:09;18.17;;;11.40;;
6135;SDS011;24008;42.664;23.372;2023-03-14T07:33:36;16.43;;;11.10;;
6135;SDS011;24008;42.664;23.372;2023-03-14T07:36:03;18.20;;;10.53;;
6135;SDS011;24008;42.664;23.372;2023-03-14T07:38:31;14.07;;;9.23;;
6135;SDS011;24008;42.664;23.372;2023-03-14T07:40:58;14.40;;;9.70;;
6135;SDS011;24008;42.664;23.372;2023-03-14T07:43:45;16.67;;;9.93;;
6135;SDS011;24008;42.664;23.372;2023-03-14T07:46:32;16.63;;;10.73;;
6135;SDS011;24008;42.664;23.372;2023-03-14T07:49:19;15.00;;;10.73;;
6135;SDS011;24008;42.664;23.372;2023-03-14T07:52:06;16.30;;;11.03;;
6135;SDS011;24008;42.664;23.372;2023-03-14T07:54:54;17.03;;;10.23;;
6135;SDS011;24008;42.664;23.372;2023-03-14T07:57:42;15.43;;;10.33;;
6135;SDS011;24008;42.664;23.372;2023-03-14T08:00:09;16.00;;;10.17;;
6135;SDS011;24008;42.664;23.372;2023-03-14T08:02:38;16.70;;;11.00;;
6135;SDS011;24008;42.664;23.372;2023-03-14T08:05:05;12.93;;;9.30;;
6135;SDS011;24008;42.664;23.372;2023-03-14T08:07:33;14.57;;;9.63;;
6135;SDS011;24008;42.664;23.372;2023-03-14T08:10:21;18.37;;;10.07;;
6135;SDS011;24008;42.664;23.372;2023-03-14T08:13:00;16.50;;;10.27;;
6135;SDS011;24008;42.664;23.372;2023-03-14T08:15:28;14.73;;;10.00;;
6135;SDS011;24008;42.664;23.372;2023-03-14T08:17:56;14.83;;;8.90;;
6135;SDS011;24008;42.664;23.372;2023-03-14T08:20:23;16.67;;;10.00;;
6135;SDS011;24008;42.664;23.372;2023-03-14T08:22:51;13.13;;;9.10;;
6135;SDS011;24008;42.664;23.372;2023-03-14T08:25:18;13.77;;;8.77;;
6135;SDS011;24008;42.664;23.372;2023-03-14T08:27:46;14.27;;;8.77;;
6135;SDS011;24008;42.664;23.372;2023-03-14T08:30:14;13.40;;;9.20;;
6135;SDS011;24008;42.664;23.372;2023-03-14T08:32:42;14.83;;;9.07;;
6135;SDS011;24008;42.664;23.372;2023-03-14T08:35:09;12.63;;;8.13;;
6135;SDS011;24008;42.664;23.372;2023-03-14T08:37:37;13.23;;;8.27;;
6135;SDS011;24008;42.664;23.372;2023-03-14T08:40:04;15.63;;;8.87;;
6135;SDS011;24008;42.664;23.372;2023-03-14T08:42:32;13.50;;;8.70;;
6135;SDS011;24008;42.664;23.372;2023-03-14T08:45:01;11.33;;;7.67;;
6135;SDS011;24008;42.664;23.372;2023-03-14T08:47:27;13.17;;;7.70;;
6135;SDS011;24008;42.664;23.372;2023-03-14T08:49:54;11.07;;;7.50;;
6135;SDS011;24008;42.664;23.372;2023-03-14T08:52:21;11.17;;;7.13;;
6135;SDS011;24008;42.664;23.372;2023-03-14T08:54:48;10.17;;;6.70;;
6135;SDS011;24008;42.664;23.372;2023-03-14T08:57:15;10.73;;;6.97;;
6135;SDS011;24008;42.664;23.372;2023-03-14T08:59:42;8.20;;;6.53;;
6135;SDS011;24008;42.664;23.372;2023-03-14T09:02:11;10.17;;;6.17;;
6135;SDS011;24008;42.664;23.372;2023-03-14T09:04:38;10.50;;;6.33;;
6135;SDS011;24008;42.664;23.372;2023-03-14T09:07:05;12.17;;;7.20;;
6135;SDS011;24008;42.664;23.372;2023-03-14T09:09:32;9.17;;;6.33;;
6135;SDS011;24008;42.664;23.372;2023-03-14T09:11:58;10.50;;;6.80;;
6135;SDS011;24008;42.664;23.372;2023-03-14T09:14:25;10.80;;;7.17;;
6135;SDS011;24008;42.664;23.372;2023-03-14T09:16:52;12.20;;;6.93;;
6135;SDS011;24008;42.664;23.372;2023-03-14T09:19:21;10.10;;;7.03;;
6135;SDS011;24008;42.664;23.372;2023-03-14T09:21:48;11.30;;;7.47;;
6135;SDS011;24008;42.664;23.372;2023-03-14T09:24:15;11.23;;;7.60;;
6135;SDS011;24008;42.664;23.372;2023-03-14T09:26:42;10.00;;;7.03;;
6135;SDS011;24008;42.664;23.372;2023-03-14T09:29:09;9.33;;;6.60;;
6135;SDS011;24008;42.664;23.372;2023-03-14T09:31:36;10.10;;;6.80;;
6135;SDS011;24008;42.664;23.372;2023-03-14T09:34:03;12.40;;;6.90;;
6135;SDS011;24008;42.664;23.372;2023-03-14T09:36:31;10.90;;;6.93;;
6135;SDS011;24008;42.664;23.372;2023-03-14T09:38:58;13.47;;;7.50;;
6135;SDS011;24008;42.664;23.372;2023-03-14T09:41:25;11.37;;;7.83;;
6135;SDS011;24008;42.664;23.372;2023-03-14T09:43:57;8.77;;;6.60;;
6135;SDS011;24008;42.664;23.372;2023-03-14T09:46:29;10.97;;;7.07;;
6135;SDS011;24008;42.664;23.372;2023-03-14T09:48:59;11.20;;;7.80;;
6135;SDS011;24008;42.664;23.372;2023-03-14T09:51:26;11.27;;;7.90;;
6135;SDS011;24008;42.664;23.372;2023-03-14T09:53:55;12.40;;;8.83;;
6135;SDS011;24008;42.664;23.372;2023-03-14T09:56:42;12.90;;;8.57;;
6135;SDS011;24008;42.664;23.372;2023-03-14T09:59:09;12.10;;;8.17;;
6135;SDS011;24008;42.664;23.372;2023-03-14T10:01:39;12.60;;;7.10;;
6135;SDS011;24008;42.664;23.372;2023-03-14T10:04:25;10.97;;;6.83;;
6135;SDS011;24008;42.664;23.372;2023-03-14T10:07:12;10.30;;;6.03;;
6135;SDS011;24008;42.664;23.372;2023-03-14T10:09:44;9.47;;;6.37;;
6135;SDS011;24008;42.664;23.372;2023-03-14T10:12:13;10.43;;;6.43;;
6135;SDS011;24008;42.664;23.372;2023-03-14T10:14:45;8.00;;;5.70;;
6135;SDS011;24008;42.664;23.372;2023-03-14T10:17:13;10.20;;;6.20;;
6135;SDS011;24008;42.664;23.372;2023-03-14T10:19:51;8.70;;;6.07;;
6135;SDS011;24008;42.664;23.372;2023-03-14T10:22:20;9.30;;;6.13;;
6135;SDS011;24008;42.664;23.372;2023-03-14T10:24:53;8.43;;;5.73;;
6135;SDS011;24008;42.664;23.372;2023-03-14T10:27:27;9.33;;;5.80;;
6135;SDS011;24008;42.664;23.372;2023-03-14T10:29:56;7.50;;;5.63;;
6135;SDS011;24008;42.664;23.372;2023-03-14T10:32:27;8.27;;;5.53;;
6135;SDS011;24008;42.664;23.372;2023-03-14T10:35:05;8.70;;;5.20;;
6135;SDS011;24008;42.664;23.372;2023-03-14T10:37:53;5.70;;;4.03;;
6135;SDS011;24008;42.664;23.372;2023-03-14T10:40:26;6.07;;;4.70;;
6135;SDS011;24008;42.664;23.372;2023-03-14T10:42:57;6.80;;;4.60;;
6135;SDS011;24008;42.664;23.372;2023-03-14T10:45:29;7.17;;;4.20;;
6135;SDS011;24008;42.664;23.372;2023-03-14T10:47:59;5.60;;;3.80;;
6135;SDS011;24008;42.664;23.372;2023-03-14T10:50:33;5.80;;;3.50;;
6135;SDS011;24008;42.664;23.372;2023-03-14T10:53:01;6.53;;;3.97;;
6135;SDS011;24008;42.664;23.372;2023-03-14T10:55:40;4.70;;;3.27;;
6135;SDS011;24008;42.664;23.372;2023-03-14T10:58:21;4.90;;;3.43;;
6135;SDS011;24008;42.664;23.372;2023-03-14T11:00:51;5.00;;;3.13;;
6135;SDS011;24008;42.664;23.372;2023-03-14T11:03:23;7.07;;;3.53;;
6135;SDS011;24008;42.664;23.372;2023-03-14T11:05:53;5.37;;;3.47;;
6135;SDS011;24008;42.664;23.372;2023-03-14T11:08:24;5.10;;;3.80;;
6135;SDS011;24008;42.664;23.372;2023-03-14T11:10:57;5.37;;;3.60;;
6135;SDS011;24008;42.664;23.372;2023-03-14T11:13:34;5.67;;;3.30;;
6135;SDS011;24008;42.664;23.372;2023-03-14T11:16:06;4.47;;;3.70;;
6135;SDS011;24008;42.664;23.372;2023-03-14T11:21:40;4.97;;;3.37;;
6135;SDS011;24008;42.664;23.372;2023-03-14T11:24:18;5.07;;;3.90;;
6135;SDS011;24008;42.664;23.372;2023-03-14T11:27:00;5.20;;;3.50;;
6135;SDS011;24008;42.664;23.372;2023-03-14T11:29:34;5.27;;;3.37;;
6135;SDS011;24008;42.664;23.372;2023-03-14T11:32:10;5.37;;;3.40;;
6135;SDS011;24008;42.664;23.372;2023-03-14T11:34:41;3.87;;;3.00;;
6135;SDS011;24008;42.664;23.372;2023-03-14T11:37:17;4.27;;;3.10;;
6135;SDS011;24008;42.664;23.372;2023-03-14T11:39:54;4.00;;;3.10;;
6135;SDS011;24008;42.664;23.372;2023-03-14T11:42:27;3.90;;;3.10;;
6135;SDS011;24008;42.664;23.372;2023-03-14T11:44:55;6.30;;;3.40;;
6135;SDS011;24008;42.664;23.372;2023-03-14T11:47:24;5.60;;;3.53;;
6135;SDS011;24008;42.664;23.372;2023-03-14T11:49:56;4.30;;;2.87;;
6135;SDS011;24008;42.664;23.372;2023-03-14T11:52:28;4.80;;;3.00;;
6135;SDS011;24008;42.664;23.372;2023-03-14T11:55:00;4.13;;;2.67;;
6135;SDS011;24008;42.664;23.372;2023-03-14T11:57:33;3.37;;;2.53;;
6135;SDS011;24008;42.664;23.372;2023-03-14T12:00:02;5.20;;;2.87;;
6135;SDS011;24008;42.664;23.372;2023-03-14T12:02:41;3.47;;;2.70;;
6135;SDS011;24008;42.664;23.372;2023-03-14T12:08:22;4.43;;;2.77;;
6135;SDS011;24008;42.664;23.372;2023-03-14T12:10:59;5.20;;;2.90;;
6135;SDS011;24008;42.664;23.372;2023-03-14T12:13:31;4.00;;;2.47;;
6135;SDS011;24008;42.664;23.372;2023-03-14T12:16:00;3.57;;;2.27;;
6135;SDS011;24008;42.664;23.372;2023-03-14T12:18:32;2.83;;;2.40;;
6135;SDS011;24008;42.664;23.372;2023-03-14T12:21:04;2.70;;;2.00;;
6135;SDS011;24008;42.664;23.372;2023-03-14T12:23:34;3.67;;;2.30;;
6135;SDS011;24008;42.664;23.372;2023-03-14T12:26:13;3.30;;;2.30;;
6135;SDS011;24008;42.664;23.372;2023-03-14T12:28:48;3.80;;;2.10;;
6135;SDS011;24008;42.664;23.372;2023-03-14T12:31:35;3.00;;;2.20;;
6135;SDS011;24008;42.664;23.372;2023-03-14T12:34:10;4.43;;;2.10;;
6135;SDS011;24008;42.664;23.372;2023-03-14T12:39:56;3.10;;;2.50;;
6135;SDS011;24008;42.664;23.372;2023-03-14T12:42:38;3.13;;;2.20;;
6135;SDS011;24008;42.664;23.372;2023-03-14T12:45:23;3.00;;;2.00;;
6135;SDS011;24008;42.664;23.372;2023-03-14T12:50:53;2.83;;;1.80;;
6135;SDS011;24008;42.664;23.372;2023-03-14T12:53:35;2.70;;;1.80;;
6135;SDS011;24008;42.664;23.372;2023-03-14T12:56:26;3.43;;;2.33;;
6135;SDS011;24008;42.664;23.372;2023-03-14T12:59:03;5.60;;;2.07;;
6135;SDS011;24008;42.664;23.372;2023-03-14T13:01:46;2.40;;;1.87;;
6135;SDS011;24008;42.664;23.372;2023-03-14T13:04:19;3.30;;;2.10;;
6135;SDS011;24008;42.664;23.372;2023-03-14T13:06:54;2.40;;;1.83;;
6135;SDS011;24008;42.664;23.372;2023-03-14T13:12:27;3.00;;;2.10;;
6135;SDS011;24008;42.664;23.372;2023-03-14T13:14:58;2.60;;;1.97;;
6135;SDS011;24008;42.664;23.372;2023-03-14T13:17:30;2.40;;;1.50;;
6135;SDS011;24008;42.664;23.372;2023-03-14T13:20:00;2.40;;;1.80;;
6135;SDS011;24008;42.664;23.372;2023-03-14T13:22:31;2.60;;;1.67;;
6135;SDS011;24008;42.664;23.372;2023-03-14T13:25:02;2.23;;;1.60;;
6135;SDS011;24008;42.664;23.372;2023-03-14T13:27:31;2.43;;;2.13;;
6135;SDS011;24008;42.664;23.372;2023-03-14T13:30:04;2.93;;;1.90;;
6135;SDS011;24008;42.664;23.372;2023-03-14T13:32:42;2.20;;;1.47;;
6135;SDS011;24008;42.664;23.372;2023-03-14T13:35:21;1.90;;;1.40;;
6135;SDS011;24008;42.664;23.372;2023-03-14T13:37:58;2.77;;;1.63;;
6135;SDS011;24008;42.664;23.372;2023-03-14T13:40:28;2.80;;;1.80;;
6135;SDS011;24008;42.664;23.372;2023-03-14T13:43:11;5.13;;;1.90;;
6135;SDS011;24008;42.664;23.372;2023-03-14T13:45:44;2.20;;;1.77;;
6135;SDS011;24008;42.664;23.372;2023-03-14T13:48:16;2.67;;;1.70;;
6135;SDS011;24008;42.664;23.372;2023-03-14T13:50:44;2.67;;;1.60;;
6135;SDS011;24008;42.664;23.372;2023-03-14T13:53:15;2.37;;;1.70;;
6135;SDS011;24008;42.664;23.372;2023-03-14T13:55:42;2.57;;;1.77;;
6135;SDS011;24008;42.664;23.372;2023-03-14T13:58:11;3.43;;;1.93;;
6135;SDS011;24008;42.664;23.372;2023-03-14T14:00:53;3.33;;;1.80;;
6135;SDS011;24008;42.664;23.372;2023-03-14T14:03:23;3.40;;;1.83;;
6135;SDS011;24008;42.664;23.372;2023-03-14T14:05:51;1.73;;;1.33;;
6135;SDS011;24008;42.664;23.372;2023-03-14T14:08:17;1.90;;;1.60;;
6135;SDS011;24008;42.664;23.372;2023-03-14T14:10:45;2.10;;;1.60;;
6135;SDS011;24008;42.664;23.372;2023-03-14T14:13:14;2.80;;;1.93;;
6135;SDS011;24008;42.664;23.372;2023-03-14T14:15:45;3.07;;;1.90;;
6135;SDS011;24008;42.664;23.372;2023-03-14T14:18:14;2.23;;;1.30;;
6135;SDS011;24008;42.664;23.372;2023-03-14T14:20:45;2.17;;;1.60;;
6135;SDS011;24008;42.664;23.372;2023-03-14T14:23:14;2.33;;;1.60;;
6135;SDS011;24008;42.664;23.372;2023-03-14T14:25:44;2.57;;;1.70;;
6135;SDS011;24008;42.664;23.372;2023-03-14T14:28:15;4.37;;;1.60;;
6135;SDS011;24008;42.664;23.372;2023-03-14T14:30:43;1.93;;;1.47;;
6135;SDS011;24008;42.664;23.372;2023-03-14T14:33:11;2.50;;;1.57;;
6135;SDS011;24008;42.664;23.372;2023-03-14T14:35:48;2.33;;;1.60;;
6135;SDS011;24008;42.664;23.372;2023-03-14T14:38:17;3.23;;;1.60;;
6135;SDS011;24008;42.664;23.372;2023-03-14T14:40:46;2.97;;;1.50;;
6135;SDS011;24008;42.664;23.372;2023-03-14T14:43:17;2.20;;;1.67;;
6135;SDS011;24008;42.664;23.372;2023-03-14T14:45:46;2.17;;;1.83;;
6135;SDS011;24008;42.664;23.372;2023-03-14T14:48:15;3.93;;;1.47;;
6135;SDS011;24008;42.664;23.372;2023-03-14T14:50:54;3.13;;;1.83;;
6135;SDS011;24008;42.664;23.372;2023-03-14T14:53:26;2.83;;;1.53;;
6135;SDS011;24008;42.664;23.372;2023-03-14T14:55:55;2.87;;;1.70;;
6135;SDS011;24008;42.664;23.372;2023-03-14T14:58:26;4.60;;;1.60;;
6135;SDS011;24008;42.664;23.372;2023-03-14T15:00:56;2.00;;;1.30;;
6135;SDS011;24008;42.664;23.372;2023-03-14T15:03:28;1.77;;;1.27;;
6135;SDS011;24008;42.664;23.372;2023-03-14T15:05:58;2.17;;;1.30;;
6135;SDS011;24008;42.664;23.372;2023-03-14T15:08:26;2.20;;;1.47;;
6135;SDS011;24008;42.664;23.372;2023-03-14T15:10:54;4.17;;;1.80;;